createdAt,value
2022-12-17T00:00:37.484Z,100264.41
2022-12-17T00:03:24.729Z,100267.97
2022-12-17T00:06:11.299Z,100259.53
2022-12-17T00:08:57.009Z,100269.97
2022-12-17T00:11:42.995Z,100273.53
2022-12-17T00:14:28.343Z,100276.44
2022-12-17T00:17:13.552Z,100273.06
2022-12-17T00:19:58.834Z,100268.00
2022-12-17T00:22:43.999Z,100271.53
2022-12-17T00:25:29.825Z,100269.84
2022-12-17T00:28:14.987Z,100268.94
2022-12-17T00:31:00.368Z,100268.00
2022-12-17T00:33:45.687Z,100277.44
2022-12-17T00:36:31.060Z,100280.78
2022-12-17T00:39:16.385Z,100280.56
2022-12-17T00:42:01.591Z,100288.16
2022-12-17T00:44:46.899Z,100288.66
2022-12-17T00:47:32.137Z,100291.97
2022-12-17T00:50:17.395Z,100288.47
2022-12-17T00:53:03.308Z,100292.69
2022-12-17T00:55:49.040Z,100289.16
2022-12-17T00:58:34.296Z,100289.16
2022-12-17T01:01:20.238Z,100296.16
2022-12-17T01:04:05.805Z,100298.00
2022-12-17T01:06:52.054Z,100298.16
2022-12-17T01:09:39.232Z,100301.66
2022-12-17T01:12:26.252Z,100304.41
2022-12-17T01:15:13.133Z,100312.34
2022-12-17T01:17:58.295Z,100317.66
2022-12-17T01:20:44.302Z,100320.41
2022-12-17T01:23:30.220Z,100326.72
2022-12-17T01:26:16.394Z,100324.34
2022-12-17T01:29:02.406Z,100321.06
2022-12-17T01:31:47.860Z,100325.63
2022-12-17T01:34:37.871Z,100322.31
2022-12-17T01:37:23.223Z,100331.16
2022-12-17T01:40:08.459Z,100339.13
2022-12-17T01:43:02.947Z,100342.75
2022-12-17T01:46:00.149Z,100350.78
2022-12-17T01:48:55.181Z,100360.44
2022-12-17T01:51:41.737Z,100360.66
2022-12-17T01:54:28.428Z,100364.28
2022-12-17T01:57:14.132Z,100358.38
2022-12-17T02:00:22.799Z,100367.13
2022-12-17T02:03:08.773Z,100367.28
2022-12-17T02:06:14.289Z,100373.41
2022-12-17T02:09:13.480Z,100370.19
2022-12-17T02:12:21.579Z,100369.41
2022-12-17T02:15:37.675Z,100378.22
2022-12-17T02:18:31.466Z,100369.75
2022-12-17T02:21:19.448Z,100372.41
2022-12-17T02:24:30.784Z,100381.13
2022-12-17T02:27:21.494Z,100385.56
2022-12-17T02:30:12.317Z,100389.06
2022-12-17T02:33:02.440Z,100383.22
2022-12-17T02:35:54.219Z,100392.81
2022-12-17T02:38:45.780Z,100387.75
2022-12-17T02:41:47.370Z,100389.56
2022-12-17T02:44:38.002Z,100391.38
2022-12-17T02:47:28.269Z,100389.69
2022-12-17T02:50:14.775Z,100395.75
2022-12-17T02:53:05.818Z,100388.06
2022-12-17T02:55:53.279Z,100396.81
2022-12-17T02:58:39.328Z,100395.13
2022-12-17T03:01:25.352Z,100400.31
2022-12-17T03:04:10.683Z,100402.06
2022-12-17T03:06:56.022Z,100402.09
2022-12-17T03:09:41.813Z,100409.09
2022-12-17T03:12:28.223Z,100420.31
2022-12-17T03:15:13.462Z,100427.38
2022-12-17T03:17:59.298Z,100428.25
2022-12-17T03:20:45.080Z,100433.56
2022-12-17T03:23:30.891Z,100437.97
2022-12-17T03:26:21.655Z,100434.59
2022-12-17T03:29:07.583Z,100436.41
2022-12-17T03:31:53.275Z,100438.16
2022-12-17T03:34:38.508Z,100438.28
2022-12-17T03:37:25.627Z,100441.81
2022-12-17T03:40:11.083Z,100442.72
2022-12-17T03:42:56.417Z,100448.06
2022-12-17T03:45:42.319Z,100442.06
2022-12-17T03:48:31.043Z,100440.44
2022-12-17T03:51:17.683Z,100448.31
2022-12-17T03:54:04.047Z,100455.25
2022-12-17T03:56:50.301Z,100446.78
2022-12-17T03:59:35.527Z,100452.03
2022-12-17T04:02:21.052Z,100450.34
2022-12-17T04:05:06.780Z,100448.66
2022-12-17T04:07:52.092Z,100445.16
2022-12-17T04:10:37.815Z,100449.50
2022-12-17T04:13:23.688Z,100456.41
2022-12-17T04:16:09.028Z,100457.31
2022-12-17T04:18:54.476Z,100454.81
2022-12-17T04:21:39.923Z,100458.31
2022-12-17T04:24:25.789Z,100467.00
2022-12-17T04:27:11.088Z,100472.31
2022-12-17T04:29:56.421Z,100469.81
2022-12-17T04:32:41.679Z,100468.13
2022-12-17T04:35:26.967Z,100476.81
2022-12-17T04:38:12.789Z,100478.69
2022-12-17T04:40:58.318Z,100476.19
2022-12-17T04:43:43.473Z,100489.19
2022-12-17T04:46:28.915Z,100490.16
2022-12-17T04:49:15.994Z,100487.69
2022-12-17T04:52:01.808Z,100487.75
2022-12-17T04:54:47.044Z,100494.72
2022-12-17T04:57:32.791Z,100492.22
2022-12-17T05:00:18.501Z,100494.94
2022-12-17T05:03:03.857Z,100490.72
2022-12-17T05:05:49.241Z,100494.31
2022-12-17T05:08:39.625Z,100487.44
2022-12-17T05:11:27.181Z,100491.91
2022-12-17T05:14:12.480Z,100500.63
2022-12-17T05:16:57.799Z,100506.78
2022-12-17T05:19:43.140Z,100513.75
2022-12-17T05:22:28.404Z,100517.34
2022-12-17T05:25:13.801Z,100522.63
2022-12-17T05:27:59.034Z,100518.41
2022-12-17T05:30:44.310Z,100522.00
2022-12-17T05:33:29.580Z,100526.44
2022-12-17T05:36:21.984Z,100529.97
2022-12-17T05:39:12.913Z,100530.97
2022-12-17T05:41:58.263Z,100538.88
2022-12-17T05:44:46.661Z,100545.00
2022-12-17T05:47:31.878Z,100539.06
2022-12-17T05:50:17.199Z,100537.50
2022-12-17T05:53:02.418Z,100539.31
2022-12-17T05:55:47.673Z,100546.28
2022-12-17T05:58:33.010Z,100549.00
2022-12-17T06:01:22.795Z,100558.50
2022-12-17T06:04:08.667Z,100556.03
2022-12-17T06:06:54.547Z,100558.69
2022-12-17T06:09:39.694Z,100562.19
2022-12-17T06:12:25.635Z,100570.91
2022-12-17T06:15:11.029Z,100573.53
2022-12-17T06:17:56.128Z,100581.38
2022-12-17T06:20:41.327Z,100578.91
2022-12-17T06:23:29.541Z,100585.81
2022-12-17T06:26:16.229Z,100586.78
2022-12-17T06:29:02.565Z,100592.91
2022-12-17T06:31:47.845Z,100597.31
2022-12-17T06:34:33.185Z,100600.00
2022-12-17T06:37:18.611Z,100593.16
2022-12-17T06:40:04.329Z,100600.13
2022-12-17T06:42:50.120Z,100601.91
2022-12-17T06:45:35.480Z,100607.16
2022-12-17T06:48:22.930Z,100609.78
2022-12-17T06:51:08.953Z,100604.69
2022-12-17T06:53:54.246Z,100615.94
2022-12-17T06:56:39.630Z,100622.03
2022-12-17T06:59:24.753Z,100623.84
2022-12-17T07:02:10.083Z,100623.00
2022-12-17T07:04:55.569Z,100624.75
2022-12-17T07:07:40.921Z,100629.97
2022-12-17T07:10:26.599Z,100635.19
2022-12-17T07:13:11.941Z,100636.91
2022-12-17T07:15:57.749Z,100646.41
2022-12-17T07:18:43.078Z,100655.91
2022-12-17T07:21:28.413Z,100661.97
2022-12-17T07:24:13.698Z,100670.66
2022-12-17T07:26:58.921Z,100678.41
2022-12-17T07:29:44.228Z,100676.72
2022-12-17T07:32:29.604Z,100687.03
2022-12-17T07:35:14.841Z,100695.69
2022-12-17T07:38:00.124Z,100694.81
2022-12-17T07:40:45.494Z,100697.44
2022-12-17T07:43:32.693Z,100701.69
2022-12-17T07:46:18.589Z,100704.28
2022-12-17T07:49:03.887Z,100704.28
2022-12-17T07:51:49.689Z,100706.00
2022-12-17T07:54:35.383Z,100711.97
2022-12-17T07:57:21.128Z,100718.75
2022-12-17T08:00:06.461Z,100713.53
2022-12-17T08:02:52.285Z,100720.38
2022-12-17T08:05:37.749Z,100715.97
2022-12-17T08:08:28.109Z,100723.59
2022-12-17T08:11:13.944Z,100725.16
2022-12-17T08:13:59.738Z,100740.47
2022-12-17T08:16:45.576Z,100739.41
2022-12-17T08:19:31.382Z,100743.41
2022-12-17T08:22:16.702Z,100741.31
2022-12-17T08:25:02.123Z,100754.66
2022-12-17T08:27:47.429Z,100751.63
2022-12-17T08:30:32.943Z,100756.25
2022-12-17T08:33:25.485Z,100760.13
2022-12-17T08:36:15.889Z,100769.19
2022-12-17T08:39:02.168Z,100773.06
2022-12-17T08:41:54.017Z,100771.88
2022-12-17T08:44:40.464Z,100777.56
2022-12-17T08:47:25.825Z,100778.03
2022-12-17T08:50:11.083Z,100787.22
2022-12-17T08:52:56.869Z,100796.31
2022-12-17T08:55:42.268Z,100794.13
2022-12-17T08:58:27.737Z,100789.41
2022-12-17T09:01:16.597Z,100788.16
2022-12-17T09:04:03.505Z,100791.22
2022-12-17T09:06:49.431Z,100790.88
2022-12-17T09:09:34.753Z,100793.13
2022-12-17T09:12:20.077Z,100793.75
2022-12-17T09:15:05.373Z,100792.59
2022-12-17T09:17:50.722Z,100801.00
2022-12-17T09:20:36.416Z,100803.38
2022-12-17T09:23:22.317Z,100802.31
2022-12-17T09:26:14.243Z,100804.72
2022-12-17T09:29:02.157Z,100799.31
2022-12-17T09:31:50.286Z,100805.16
2022-12-17T09:34:36.496Z,100800.63
2022-12-17T09:37:22.627Z,100804.75
2022-12-17T09:40:08.289Z,100808.09
2022-12-17T09:43:25.408Z,100810.41
2022-12-17T09:46:54.537Z,100815.38
2022-12-17T09:49:45.469Z,100825.56
2022-12-17T09:52:45.619Z,100827.16
2022-12-17T09:55:44.524Z,100820.06
2022-12-17T09:58:48.704Z,100821.66
2022-12-17T10:01:54.951Z,100826.47
2022-12-17T10:04:59.112Z,100823.63
2022-12-17T10:07:52.351Z,100823.38
2022-12-17T10:10:48.525Z,100814.34
2022-12-17T10:13:38.502Z,100813.16
2022-12-17T10:16:48.119Z,100817.13
2022-12-17T10:19:55.449Z,100816.69
2022-12-17T10:22:41.625Z,100829.25
2022-12-17T10:25:41.071Z,100825.31
2022-12-17T10:28:39.981Z,100824.88
2022-12-17T10:31:35.076Z,100831.38
2022-12-17T10:34:20.967Z,100833.66
2022-12-17T10:37:09.959Z,100830.63
2022-12-17T10:39:56.223Z,100823.38
2022-12-17T10:42:57.697Z,100828.31
2022-12-17T10:45:45.233Z,100827.97
2022-12-17T10:48:43.891Z,100832.75
2022-12-17T10:51:49.471Z,100843.69
2022-12-17T10:54:52.510Z,100843.31
2022-12-17T10:57:55.608Z,100845.41
2022-12-17T11:00:52.759Z,100847.63
2022-12-17T11:03:47.218Z,100844.44
2022-12-17T11:06:42.668Z,100843.91
2022-12-17T11:10:12.543Z,100849.31
2022-12-17T11:13:14.573Z,100851.41
2022-12-17T11:16:09.656Z,100859.56
2022-12-17T11:18:58.040Z,100853.13
2022-12-17T11:22:14.733Z,100856.94
2022-12-17T11:25:07.880Z,100852.34
2022-12-17T11:28:25.856Z,100864.88
2022-12-17T11:31:31.522Z,100852.28
2022-12-17T11:35:08.834Z,100851.72
2022-12-17T11:38:42.721Z,100848.72
2022-12-17T11:42:17.876Z,100838.03
2022-12-17T11:45:38.407Z,100845.41
2022-12-17T11:48:49.315Z,100850.38
2022-12-17T11:51:44.251Z,100840.44
2022-12-17T11:54:43.772Z,100844.41
2022-12-17T11:57:36.152Z,100840.75
2022-12-17T12:00:42.361Z,100832.72
2022-12-17T12:04:01.051Z,100830.13
2022-12-17T12:06:55.301Z,100836.03
2022-12-17T12:09:51.843Z,100837.72
2022-12-17T12:12:56.501Z,100843.63
2022-12-17T12:16:07.388Z,100848.75
2022-12-17T12:19:08.096Z,100846.16
2022-12-17T12:22:03.648Z,100854.06
2022-12-17T12:25:14.331Z,100848.25
2022-12-17T12:28:05.278Z,100852.53
2022-12-17T12:31:21.746Z,100847.31
2022-12-17T12:34:19.069Z,100847.31
2022-12-17T12:37:07.493Z,100843.94
2022-12-17T12:40:20.359Z,100841.25
2022-12-17T12:43:36.269Z,100833.34
2022-12-17T12:46:41.382Z,100844.47
2022-12-17T12:49:44.117Z,100848.59
2022-12-17T12:52:37.321Z,100843.31
2022-12-17T12:55:23.548Z,100842.19
2022-12-17T12:58:18.186Z,100837.72
2022-12-17T13:01:06.247Z,100839.44
2022-12-17T13:04:08.761Z,100836.81
2022-12-17T13:06:55.962Z,100841.22
2022-12-17T13:09:34.167Z,100831.84
2022-12-17T13:12:05.141Z,100832.06
2022-12-17T13:14:48.187Z,100828.84
2022-12-17T13:17:14.966Z,100829.03
2022-12-17T13:19:58.076Z,100823.06
2022-12-17T13:22:30.110Z,100821.38
2022-12-17T13:25:17.298Z,100821.19
2022-12-17T13:27:45.301Z,100822.78
2022-12-17T13:30:18.847Z,100825.25
2022-12-17T13:33:39.840Z,100819.00
2022-12-17T13:36:30.322Z,100820.69
2022-12-17T13:39:23.876Z,100824.25
2022-12-17T13:41:56.990Z,100833.94
2022-12-17T13:44:44.822Z,100834.09
2022-12-17T13:47:23.070Z,100827.34
2022-12-17T13:50:31.674Z,100831.03
2022-12-17T13:52:43.434Z,100836.59
2022-12-17T13:55:29.184Z,100837.69
2022-12-17T13:57:56.637Z,100839.69
2022-12-17T14:00:28.687Z,100840.84
2022-12-17T14:02:55.725Z,100854.13
2022-12-17T14:05:37.856Z,100861.38
2022-12-17T14:08:05.967Z,100866.91
2022-12-17T14:10:33.471Z,100870.59
2022-12-17T14:13:13.654Z,100862.16
2022-12-17T14:15:48.199Z,100858.97
2022-12-17T14:18:20.653Z,100862.72
2022-12-17T14:20:50.441Z,100857.72
2022-12-17T14:23:31.302Z,100856.19
2022-12-17T14:25:59.022Z,100846.97
2022-12-17T14:28:34.881Z,100848.91
2022-12-17T14:31:26.775Z,100848.28
2022-12-17T14:34:07.262Z,100846.81
2022-12-17T14:36:37.658Z,100847.91
2022-12-17T14:39:29.983Z,100845.44
2022-12-17T14:42:26.688Z,100844.03
2022-12-17T14:45:02.803Z,100853.09
2022-12-17T14:47:33.303Z,100854.22
2022-12-17T14:50:13.542Z,100857.97
2022-12-17T14:52:50.091Z,100860.91
2022-12-17T14:55:32.012Z,100870.69
2022-12-17T14:58:14.036Z,100866.69
2022-12-17T15:00:46.324Z,100864.44
2022-12-17T15:03:29.113Z,100870.78
2022-12-17T15:06:06.927Z,100873.66
2022-12-17T15:08:41.455Z,100871.34
2022-12-17T15:11:16.990Z,100878.50
2022-12-17T15:13:44.159Z,100877.09
2022-12-17T15:16:11.943Z,100873.84
2022-12-17T15:18:39.315Z,100880.13
2022-12-17T15:21:06.760Z,100885.63
2022-12-17T15:23:33.704Z,100886.66
2022-12-17T15:26:00.692Z,100889.44
2022-12-17T15:28:27.725Z,100895.78
2022-12-17T15:30:54.768Z,100889.03
2022-12-17T15:33:22.017Z,100893.53
2022-12-17T15:35:49.000Z,100905.03
2022-12-17T15:38:15.990Z,100903.47
2022-12-17T15:40:42.971Z,100901.06
2022-12-17T15:43:11.952Z,100903.88
2022-12-17T15:45:50.995Z,100907.50
2022-12-17T15:48:23.348Z,100900.81
2022-12-17T15:50:50.542Z,100901.03
2022-12-17T15:53:17.536Z,100904.66
2022-12-17T15:55:44.547Z,100903.06
2022-12-17T15:58:11.684Z,100894.56
2022-12-17T16:00:38.882Z,100899.13
2022-12-17T16:03:06.419Z,100900.09
2022-12-17T16:05:33.479Z,100895.94
2022-12-17T16:08:02.336Z,100903.88
2022-12-17T16:10:30.250Z,100902.22
2022-12-17T16:12:57.786Z,100899.78
2022-12-17T16:15:24.950Z,100898.13
2022-12-17T16:17:51.919Z,100902.63
2022-12-17T16:20:20.058Z,100894.09
2022-12-17T16:22:47.079Z,100895.09
2022-12-17T16:25:14.235Z,100904.75
2022-12-17T16:27:41.264Z,100902.28
2022-12-17T16:30:11.075Z,100906.69
2022-12-17T16:32:38.754Z,100900.78
2022-12-17T16:35:06.614Z,100906.97
2022-12-17T16:37:33.601Z,100910.56
2022-12-17T16:40:00.864Z,100901.22
2022-12-17T16:42:28.308Z,100905.59
2022-12-17T16:44:55.334Z,100893.66
2022-12-17T16:47:22.344Z,100909.25
2022-12-17T16:49:50.871Z,100918.06
2022-12-17T16:52:17.943Z,100917.22
2022-12-17T16:54:44.898Z,100918.19
2022-12-17T16:57:11.854Z,100919.06
2022-12-17T16:59:38.830Z,100920.81
2022-12-17T17:02:11.766Z,100916.59
2022-12-17T17:04:39.188Z,100920.09
2022-12-17T17:07:06.342Z,100917.56
2022-12-17T17:09:33.451Z,100921.06
2022-12-17T17:12:00.377Z,100925.41
2022-12-17T17:14:27.470Z,100941.06
2022-12-17T17:16:54.452Z,100941.88
2022-12-17T17:19:21.405Z,100944.50
2022-12-17T17:21:54.043Z,100940.22
2022-12-17T17:24:25.335Z,100953.19
2022-12-17T17:26:53.738Z,100953.19
2022-12-17T17:29:22.092Z,100955.00
2022-12-17T17:34:38.326Z,100955.91
2022-12-17T17:37:05.235Z,100956.78
2022-12-17T17:39:34.033Z,100955.09
2022-12-17T17:42:01.775Z,100950.81
2022-12-17T17:44:28.696Z,100949.97
2022-12-17T17:46:55.656Z,100952.56
2022-12-17T17:49:22.788Z,100949.13
2022-12-17T17:54:39.303Z,100959.53
2022-12-17T17:57:06.361Z,100960.44
2022-12-17T17:59:34.421Z,100963.09
2022-12-17T18:02:02.725Z,100963.09
2022-12-17T18:04:30.491Z,100969.22
2022-12-17T18:09:44.324Z,100981.44
2022-12-17T18:12:30.116Z,100981.50
2022-12-17T18:15:13.679Z,100986.72
2022-12-17T18:17:41.848Z,100990.22
2022-12-17T18:20:10.075Z,100985.94
2022-12-17T18:22:37.816Z,100983.41
2022-12-17T18:25:05.715Z,100986.00
2022-12-17T18:27:32.688Z,100981.75
2022-12-17T18:29:59.656Z,100986.94
2022-12-17T18:32:26.599Z,100987.84
2022-12-17T18:34:53.633Z,100993.94
2022-12-17T18:37:20.716Z,100994.00
2022-12-17T18:39:48.946Z,100988.88
2022-12-17T18:42:34.456Z,100984.53
2022-12-17T18:45:01.906Z,100981.16
2022-12-17T18:47:29.009Z,100986.34
2022-12-17T18:49:55.994Z,100978.59
2022-12-17T18:52:24.625Z,100976.03
2022-12-17T18:54:51.648Z,100984.75
2022-12-17T18:57:18.623Z,100995.13
2022-12-17T18:59:45.694Z,100992.59
2022-12-17T19:02:13.964Z,100992.59
2022-12-17T19:04:41.773Z,100980.53
2022-12-17T19:07:09.388Z,100990.94
2022-12-17T19:09:38.307Z,100992.63
2022-12-17T19:12:08.324Z,100987.50
2022-12-17T19:14:36.303Z,100991.00
2022-12-17T19:17:04.999Z,100992.81
2022-12-17T19:19:33.143Z,100998.00
2022-12-17T19:22:00.321Z,100994.59
2022-12-17T19:24:27.646Z,100999.78
2022-12-17T19:26:54.703Z,101007.69
2022-12-17T19:29:22.675Z,101009.44
2022-12-17T19:31:49.837Z,101006.91
2022-12-17T19:34:18.958Z,101003.47
2022-12-17T19:36:47.171Z,101006.13
2022-12-17T19:39:18.309Z,101005.41
2022-12-17T19:41:45.191Z,101003.75
2022-12-17T19:44:15.154Z,101007.38
2022-12-17T19:46:43.440Z,101010.00
2022-12-17T19:49:13.472Z,101003.13
2022-12-17T19:51:42.961Z,101002.28
2022-12-17T19:54:15.019Z,101002.34
2022-12-17T19:56:44.715Z,100996.31
2022-12-17T19:59:13.706Z,101005.84
2022-12-17T20:01:46.442Z,101004.94
2022-12-17T20:04:16.165Z,101004.16
2022-12-17T20:06:44.646Z,100996.38
2022-12-17T20:09:12.332Z,101001.56
2022-12-17T20:11:39.579Z,100998.13
2022-12-17T20:14:22.444Z,100999.94
2022-12-17T20:16:58.492Z,100994.81
2022-12-17T20:19:33.437Z,101004.34
2022-12-17T20:22:02.555Z,100996.59
2022-12-17T20:24:32.015Z,101000.94
2022-12-17T20:27:00.730Z,101001.06
2022-12-17T20:29:29.407Z,101007.16
2022-12-17T20:31:56.539Z,101001.19
2022-12-17T20:34:24.516Z,101009.81
2022-12-17T20:36:53.456Z,101010.72
2022-12-17T20:39:26.668Z,101021.16
2022-12-17T20:41:56.456Z,101021.22
2022-12-17T20:44:23.475Z,101016.94
2022-12-17T20:46:50.399Z,101014.34
2022-12-17T20:49:17.318Z,101016.03
2022-12-17T20:51:44.302Z,101016.09
2022-12-17T20:54:11.588Z,101025.59
2022-12-17T20:56:39.859Z,101016.13
2022-12-17T20:59:13.027Z,101012.69
2022-12-17T21:01:40.616Z,101000.63
2022-12-17T21:04:08.224Z,101004.97
2022-12-17T21:06:47.337Z,101001.56
2022-12-17T21:09:18.007Z,101006.84
2022-12-17T21:11:44.982Z,101016.38
2022-12-17T21:14:16.637Z,101020.78
2022-12-17T21:16:44.441Z,101019.97
2022-12-17T21:19:17.688Z,101024.28
2022-12-17T21:21:45.161Z,101030.38
2022-12-17T21:24:12.189Z,101041.66
2022-12-17T21:26:42.241Z,101052.03
2022-12-17T21:29:09.920Z,101065.88
2022-12-17T21:31:44.369Z,101065.88
2022-12-17T21:34:16.172Z,101053.81
2022-12-17T21:36:44.040Z,101039.13
2022-12-17T21:39:13.574Z,101027.91
2022-12-17T21:41:45.095Z,101022.72
2022-12-17T21:44:13.884Z,101022.72
2022-12-17T21:46:42.951Z,101028.81
2022-12-17T21:49:10.605Z,101014.16
2022-12-17T21:51:38.014Z,101018.44
2022-12-17T21:54:08.406Z,101020.25
2022-12-17T21:56:36.201Z,101021.09
2022-12-17T21:59:03.551Z,101026.41
2022-12-17T22:01:33.625Z,101021.22
2022-12-17T22:04:04.122Z,101024.72
2022-12-17T22:06:42.485Z,101034.22
2022-12-17T22:09:20.967Z,101048.91
2022-12-17T22:12:22.202Z,101046.31
2022-12-17T22:14:49.279Z,101050.66
2022-12-17T22:17:16.239Z,101036.00
2022-12-17T22:19:43.154Z,101032.56
2022-12-17T22:22:10.245Z,101033.41
2022-12-17T22:24:37.355Z,101035.16
2022-12-17T22:27:05.140Z,101035.16
2022-12-17T22:29:55.653Z,101036.91
2022-12-17T22:32:41.562Z,101037.81
2022-12-17T22:36:25.384Z,101049.00
2022-12-17T22:42:20.635Z,101043.00
2022-12-17T22:44:37.653Z,101036.97
2022-12-17T22:44:43.848Z,101050.81
2022-12-17T22:46:17.808Z,101066.38
2022-12-17T22:48:45.253Z,101061.25
2022-12-17T22:51:15.452Z,101060.34
2022-12-17T22:53:47.197Z,101056.00
2022-12-17T22:56:26.082Z,101060.38
2022-12-17T22:59:02.037Z,101059.53
2022-12-17T23:01:29.086Z,101053.50
2022-12-17T23:03:58.613Z,101063.00
2022-12-17T23:06:26.973Z,101059.56
2022-12-17T23:08:54.117Z,101060.41
2022-12-17T23:11:25.064Z,101057.88
2022-12-17T23:13:53.694Z,101053.53
2022-12-17T23:16:20.993Z,101044.03
2022-12-17T23:18:50.602Z,101052.69
2022-12-17T23:21:24.972Z,101052.69
2022-12-17T23:23:53.905Z,101044.06
2022-12-17T23:26:33.621Z,101039.78
2022-12-17T23:29:07.086Z,101044.97
2022-12-17T23:31:38.429Z,101038.94
2022-12-17T23:34:05.818Z,101031.19
2022-12-17T23:36:33.478Z,101031.19
2022-12-17T23:39:00.813Z,101042.44
2022-12-17T23:41:30.337Z,101042.44
2022-12-17T23:43:58.411Z,101050.22
2022-12-17T23:46:28.398Z,101043.31
2022-12-17T23:48:55.850Z,101043.38
2022-12-17T23:51:25.941Z,101042.53
2022-12-17T23:53:53.061Z,101051.19
2022-12-17T23:56:26.452Z,101048.59
2022-12-17T23:59:00.305Z,101043.50
